Time;durP1;ratioP1;P1;durP2;ratioP2;P2;SDS_P1;SDS_P2;PMS_P1;PMS_P2;Temp;Humidity;BMP_temperature;BMP_pressure;BME280_temperature;BME280_humidity;BME280_pressure;Samples;Min_cycle;Max_cycle;Signal;HPM_P1;HPM_P2
2021/05/04 00:00:18;;;;;;;4.78;1.40;;;;;;;7.58;53.22;100076.78;1647090;86;21779;-71
2021/05/04 00:02:46;;;;;;;1.72;1.10;;;;;;;7.59;53.19;100075.75;1672155;85;21209;-70
2021/05/04 00:05:13;;;;;;;2.95;1.35;;;;;;;7.59;53.18;100073.88;1648398;86;21067;-69
2021/05/04 00:07:41;;;;;;;2.30;1.20;;;;;;;7.60;53.26;100076.08;1672130;85;21336;-71
2021/05/04 00:10:10;;;;;;;1.90;1.27;;;;;;;7.63;53.21;100072.98;1672164;85;21277;-71
2021/05/04 00:12:39;;;;;;;3.27;1.40;;;;;;;7.62;53.21;100075.38;1648385;85;21123;-72
2021/05/04 00:15:09;;;;;;;2.22;1.30;;;;;;;7.58;53.30;100078.15;1674008;85;21082;-71
2021/05/04 00:17:37;;;;;;;3.50;1.42;;;;;;;7.54;53.65;100079.03;1648363;87;21107;-71
2021/05/04 00:20:06;;;;;;;5.20;1.55;;;;;;;7.53;53.79;100081.95;1674101;85;21074;-72
2021/05/04 00:22:35;;;;;;;1.82;1.20;;;;;;;7.52;53.81;100076.16;1672095;85;21102;-73
2021/05/04 00:25:04;;;;;;;2.98;1.50;;;;;;;7.53;53.82;100077.34;1672206;85;21192;-72
2021/05/04 00:27:31;;;;;;;2.55;1.57;;;;;;;7.54;53.93;100089.09;1646519;86;21310;-72
2021/05/04 00:29:58;;;;;;;2.90;1.40;;;;;;;7.55;53.94;100083.97;1674017;85;21532;-71
2021/05/04 00:32:26;;;;;;;3.25;1.45;;;;;;;7.50;53.98;100086.41;1646440;87;21103;-72
2021/05/04 00:34:53;;;;;;;4.05;1.30;;;;;;;7.46;54.13;100088.66;1672205;85;21869;-73
2021/05/04 00:37:21;;;;;;;1.50;1.20;;;;;;;7.47;54.21;100093.08;1646487;86;21099;-71
2021/05/04 00:39:50;;;;;;;3.37;1.30;;;;;;;7.48;54.33;100093.41;1672118;85;21094;-71
2021/05/04 00:42:18;;;;;;;3.92;1.50;;;;;;;7.45;54.41;100092.94;1646118;87;21767;-71
2021/05/04 00:44:45;;;;;;;1.50;1.20;;;;;;;7.43;54.47;100091.75;1671977;85;21129;-71
2021/05/04 00:47:13;;;;;;;2.08;1.42;;;;;;;7.44;54.52;100089.88;1646447;85;21111;-71
2021/05/04 00:49:41;;;;;;;3.35;1.37;;;;;;;7.42;54.57;100093.30;1672107;85;21209;-70
2021/05/04 00:52:08;;;;;;;2.12;1.25;;;;;;;7.38;54.72;100095.55;1646464;86;21338;-70
2021/05/04 00:54:36;;;;;;;2.12;1.60;;;;;;;7.38;54.88;100098.80;1650512;85;21193;-71
2021/05/04 00:57:04;;;;;;;2.27;1.30;;;;;;;7.30;54.99;100092.91;1646678;86;21355;-72
2021/05/04 00:59:32;;;;;;;3.37;1.80;;;;;;;7.19;55.21;100087.38;1672612;85;21098;-72
2021/05/04 01:01:59;;;;;;;2.27;1.52;;;;;;;7.10;55.47;100093.05;1645432;85;21782;-71
2021/05/04 01:04:27;;;;;;;2.62;1.52;;;;;;;7.00;55.70;100093.30;1672028;85;21196;-71
2021/05/04 01:06:54;;;;;;;2.20;1.65;;;;;;;6.92;56.05;100096.08;1648366;86;21820;-72
2021/05/04 01:09:22;;;;;;;2.55;1.82;;;;;;;6.91;56.24;100088.94;1672167;85;21805;-71
2021/05/04 01:11:50;;;;;;;2.95;1.82;;;;;;;6.92;56.30;100087.39;1646966;85;21209;-71
2021/05/04 01:14:18;;;;;;;3.42;1.67;;;;;;;6.94;56.32;100079.89;1673566;85;21487;-71
2021/05/04 01:16:49;;;;;;;3.42;1.87;;;;;;;6.95;56.36;100082.95;1648435;87;21236;-72
2021/05/04 01:19:17;;;;;;;3.70;1.90;;;;;;;6.94;56.39;100091.30;1672124;85;21347;-72
2021/05/04 01:21:44;;;;;;;4.72;1.87;;;;;;;6.92;56.50;100087.39;1673011;85;21091;-71
2021/05/04 01:24:12;;;;;;;4.05;1.77;;;;;;;6.92;56.62;100083.83;1646815;86;21515;-70
2021/05/04 01:26:43;;;;;;;2.95;1.50;;;;;;;6.93;56.71;100080.08;1672163;85;21821;-70
2021/05/04 01:29:11;;;;;;;2.83;1.82;;;;;;;6.91;56.69;100084.34;1646658;85;21280;-72
2021/05/04 01:31:39;;;;;;;5.22;1.75;;;;;;;6.92;56.86;100077.02;1672184;85;21075;-70
2021/05/04 01:34:07;;;;;;;2.90;1.95;;;;;;;6.93;56.90;100086.37;1646648;85;21116;-70
2021/05/04 01:36:35;;;;;;;4.03;1.90;;;;;;;6.97;56.87;100085.48;1672238;85;21392;-71
2021/05/04 01:39:09;;;;;;;2.85;1.52;;;;;;;6.98;56.76;100087.18;1672232;85;21090;-71
2021/05/04 01:41:37;;;;;;;3.45;1.70;;;;;;;7.00;56.75;100086.48;1672124;85;21070;-70
2021/05/04 01:44:06;;;;;;;2.83;1.87;;;;;;;6.97;56.72;100089.57;1646647;85;21143;-71
2021/05/04 01:46:33;;;;;;;5.12;3.30;;;;;;;6.88;56.98;100083.34;1672139;85;21098;-70
2021/05/04 01:49:07;;;;;;;3.83;2.20;;;;;;;6.85;57.22;100095.95;1646544;85;21289;-72
2021/05/04 01:51:36;;;;;;;3.58;1.92;;;;;;;6.89;57.36;100096.45;1672206;85;21168;-70
2021/05/04 01:54:04;;;;;;;2.98;1.62;;;;;;;6.90;57.35;100098.98;1672063;85;21391;-72
2021/05/04 01:56:32;;;;;;;3.15;1.60;;;;;;;6.91;57.37;100099.83;1672274;85;21117;-72
2021/05/04 01:59:04;;;;;;;2.75;1.87;;;;;;;6.87;57.44;100095.78;1647430;87;21295;-71
2021/05/04 02:01:31;;;;;;;3.72;1.70;;;;;;;6.86;57.62;100098.17;1672233;85;21233;-71
2021/05/04 02:03:59;;;;;;;4.30;2.05;;;;;;;6.85;57.66;100108.22;1672167;85;21078;-71
2021/05/04 02:06:26;;;;;;;4.87;2.00;;;;;;;6.83;57.74;100095.30;1646578;87;21278;-72
2021/05/04 02:08:54;;;;;;;2.80;1.90;;;;;;;6.83;57.87;100103.98;1672230;85;21085;-71
2021/05/04 02:11:22;;;;;;;3.77;1.95;;;;;;;6.82;57.97;100092.23;1646559;85;21198;-70
2021/05/04 02:13:49;;;;;;;3.47;2.05;;;;;;;6.84;58.01;100101.08;1672188;85;21301;-70
2021/05/04 02:16:17;;;;;;;4.05;2.00;;;;;;;6.88;58.00;100108.37;1648470;85;21103;-70
2021/05/04 02:18:44;;;;;;;3.27;1.92;;;;;;;6.85;58.08;100108.73;1672102;85;21292;-71
2021/05/04 02:21:12;;;;;;;2.60;1.80;;;;;;;6.84;58.14;100107.03;1646577;85;21801;-72
2021/05/04 02:23:39;;;;;;;3.08;2.02;;;;;;;6.82;58.21;100101.77;1672253;85;21155;-70
2021/05/04 02:26:06;;;;;;;3.02;2.30;;;;;;;6.82;58.39;100099.56;1646662;86;21060;-73
2021/05/04 02:28:34;;;;;;;4.58;2.22;;;;;;;6.84;58.42;100092.05;1672231;85;21699;-71
2021/05/04 02:31:02;;;;;;;3.60;2.10;;;;;;;6.85;58.53;100100.05;1646592;85;21853;-73
2021/05/04 02:33:29;;;;;;;3.70;2.05;;;;;;;6.90;58.41;100096.78;1673487;85;21564;-72
2021/05/04 02:35:58;;;;;;;3.15;2.00;;;;;;;6.87;58.47;100098.50;1647507;85;21897;-72
2021/05/04 02:38:25;;;;;;;3.17;2.33;;;;;;;6.86;58.54;100097.66;1621072;88;21738;-72
2021/05/04 02:40:53;;;;;;;3.40;2.10;;;;;;;6.85;58.61;100100.56;1622893;88;21146;-70
2021/05/04 02:43:20;;;;;;;3.70;2.33;;;;;;;6.87;58.68;100100.71;1622893;88;21718;-70
2021/05/04 02:45:48;;;;;;;3.33;2.10;;;;;;;6.85;58.74;100104.64;1621014;88;21281;-71
2021/05/04 02:48:15;;;;;;;4.00;2.27;;;;;;;6.86;58.87;100106.34;1622859;88;21118;-71
2021/05/04 02:50:43;;;;;;;3.30;2.15;;;;;;;6.86;58.90;100102.25;1621030;88;21122;-72
2021/05/04 02:53:12;;;;;;;4.58;2.65;;;;;;;6.85;58.99;100100.56;1621057;88;21105;-72
2021/05/04 02:55:39;;;;;;;4.45;2.30;;;;;;;6.84;59.05;100108.39;1622896;88;21111;-70
2021/05/04 02:58:06;;;;;;;4.75;2.40;;;;;;;6.81;59.28;100107.39;1622892;88;21098;-71
2021/05/04 03:00:34;;;;;;;3.42;2.17;;;;;;;6.81;59.42;100114.20;1621038;88;21278;-72
2021/05/04 03:03:01;;;;;;;3.87;2.40;;;;;;;6.82;59.37;100115.38;1622676;88;21101;-70
2021/05/04 03:05:29;;;;;;;5.45;2.50;;;;;;;6.85;59.32;100115.53;1620851;88;21102;-72
2021/05/04 03:07:56;;;;;;;3.80;2.50;;;;;;;6.81;59.29;100119.13;1620999;88;21089;-73
2021/05/04 03:10:24;;;;;;;4.42;2.10;;;;;;;6.77;59.40;100126.48;1621002;88;21122;-72
2021/05/04 03:12:53;;;;;;;6.72;2.40;;;;;;;6.73;59.57;100121.91;1620912;88;21126;-71
2021/05/04 03:15:22;;;;;;;2.75;2.08;;;;;;;6.70;59.75;100111.37;1622866;88;21313;-72
2021/05/04 03:17:49;;;;;;;3.83;2.40;;;;;;;6.73;59.85;100124.63;1620942;88;21105;-72
2021/05/04 03:20:16;;;;;;;4.55;2.12;;;;;;;6.72;59.86;100128.89;1621076;88;21118;-74
2021/05/04 03:22:44;;;;;;;2.98;2.30;;;;;;;6.66;60.06;100129.95;1622891;88;21363;-70
2021/05/04 03:25:11;;;;;;;4.00;2.33;;;;;;;6.67;60.10;100133.01;1621304;88;21098;-72
2021/05/04 03:27:39;;;;;;;3.85;2.22;;;;;;;6.66;60.11;100126.38;1622907;88;21134;-76
2021/05/04 03:30:08;;;;;;;3.15;2.05;;;;;;;6.69;60.17;100127.38;1620959;88;21089;-71
2021/05/04 03:32:40;;;;;;;3.83;2.87;;;;;;;6.74;60.20;100130.92;1620990;88;21100;-71
2021/05/04 03:35:07;;;;;;;6.90;2.50;;;;;;;6.79;60.20;100132.59;1621133;88;21434;-71
2021/05/04 03:37:34;;;;;;;4.28;2.58;;;;;;;6.82;60.14;100135.80;1618797;88;21106;-73
2021/05/04 03:40:03;;;;;;;3.70;2.42;;;;;;;6.85;60.15;100130.00;1672107;85;21070;-72
2021/05/04 03:42:30;;;;;;;4.03;2.60;;;;;;;6.88;60.11;100144.62;1672147;85;21110;-73
2021/05/04 03:44:57;;;;;;;3.85;2.47;;;;;;;6.84;60.04;100145.16;1646382;85;21273;-73
2021/05/04 03:47:25;;;;;;;4.58;2.60;;;;;;;6.82;60.18;100152.66;1674517;85;21066;-73
2021/05/04 03:49:52;;;;;;;4.75;2.60;;;;;;;6.83;60.31;100151.12;1648434;85;21115;-72
2021/05/04 03:52:20;;;;;;;7.85;2.42;;;;;;;6.79;60.36;100141.61;1672118;85;21098;-70
2021/05/04 03:54:47;;;;;;;4.45;2.35;;;;;;;6.76;60.42;100156.95;1646546;86;21362;-72
2021/05/04 03:57:15;;;;;;;5.08;2.90;;;;;;;6.77;60.59;100157.28;1672180;85;21203;-73
2021/05/04 03:59:43;;;;;;;5.08;2.40;;;;;;;6.81;60.67;100154.53;1646608;87;21904;-72
2021/05/04 04:02:11;;;;;;;3.10;2.40;;;;;;;6.79;60.67;100159.31;1672914;85;21276;-72
2021/05/04 04:04:39;;;;;;;5.33;2.50;;;;;;;6.79;60.77;100151.14;1646506;87;21107;-72
2021/05/04 04:07:06;;;;;;;5.10;2.40;;;;;;;6.83;60.87;100150.27;1674062;85;21114;-70
2021/05/04 04:09:34;;;;;;;3.50;2.40;;;;;;;6.89;60.76;100156.36;1646471;87;21877;-71
2021/05/04 04:12:01;;;;;;;4.25;2.67;;;;;;;6.90;60.71;100160.78;1674050;85;21054;-72
2021/05/04 04:14:28;;;;;;;6.17;2.87;;;;;;;6.91;60.82;100155.16;1648269;85;21119;-73
2021/05/04 04:16:56;;;;;;;3.65;2.60;;;;;;;6.95;60.79;100154.28;1673042;85;21054;-72
2021/05/04 04:19:23;;;;;;;3.62;2.70;;;;;;;7.02;60.71;100148.95;1648247;86;21270;-71
2021/05/04 04:21:50;;;;;;;3.70;2.30;;;;;;;7.09;60.60;100151.28;1671969;85;21223;-72
2021/05/04 04:24:18;;;;;;;4.47;2.77;;;;;;;7.14;60.41;100148.86;1647814;86;21279;-72
2021/05/04 04:26:45;;;;;;;6.45;2.70;;;;;;;7.19;60.32;100143.23;1674021;85;21065;-71
2021/05/04 04:29:12;;;;;;;6.72;2.95;;;;;;;7.25;60.26;100144.38;1646310;86;21096;-71
2021/05/04 04:31:41;;;;;;;4.42;2.55;;;;;;;7.28;60.01;100147.59;1672092;85;21725;-71
2021/05/04 04:34:09;;;;;;;4.92;2.87;;;;;;;7.32;60.00;100157.61;1646361;86;21311;-71
2021/05/04 04:36:37;;;;;;;4.37;2.60;;;;;;;7.34;59.98;100154.70;1674375;85;21367;-72
2021/05/04 04:39:05;;;;;;;5.60;2.80;;;;;;;7.36;59.94;100151.28;1651988;85;21110;-73
2021/05/04 04:41:40;;;;;;;3.67;2.52;;;;;;;7.39;59.94;100146.31;1677787;85;21058;-71
2021/05/04 04:44:07;;;;;;;3.98;2.27;;;;;;;7.41;59.93;100146.13;1677704;84;21144;-72
2021/05/04 04:46:45;;;;;;;5.22;2.92;;;;;;;7.44;60.04;100150.69;1654036;85;21111;-74
2021/05/04 04:49:05;;;;;;;5.75;2.50;;;;;;;7.47;59.93;100156.29;1650279;85;21353;-74
2021/05/04 04:51:33;;;;;;;4.22;2.77;;;;;;;7.52;59.87;100152.50;1679785;85;21082;-71
2021/05/04 04:54:01;;;;;;;4.22;2.92;;;;;;;7.56;59.84;100163.36;1651966;85;21803;-72
2021/05/04 04:56:29;;;;;;;4.72;2.80;;;;;;;7.58;59.73;100159.94;1679841;85;21078;-72
2021/05/04 04:58:56;;;;;;;5.00;3.20;;;;;;;7.54;59.85;100168.16;1653917;85;21108;-72
2021/05/04 05:01:24;;;;;;;5.17;3.05;;;;;;;7.56;59.95;100155.19;1677796;85;21212;-71
2021/05/04 05:03:51;;;;;;;5.08;2.90;;;;;;;7.61;60.01;100150.88;1651968;85;21270;-71
2021/05/04 05:06:21;;;;;;;4.08;2.47;;;;;;;7.70;59.85;100174.82;1677844;85;21046;-71
2021/05/04 05:08:51;;;;;;;5.40;2.83;;;;;;;7.72;59.64;100157.77;1677701;85;21676;-72
2021/05/04 05:11:19;;;;;;;5.28;3.02;;;;;;;7.77;59.62;100164.02;1652052;87;21307;-73
2021/05/04 05:13:47;;;;;;;5.70;3.05;;;;;;;7.83;59.46;100172.34;1678957;85;21077;-70
2021/05/04 05:16:15;;;;;;;5.53;3.10;;;;;;;7.86;59.34;100173.84;1651890;87;21131;-72
2021/05/04 05:18:45;;;;;;;5.78;3.05;;;;;;;7.89;59.33;100169.39;1679705;85;21184;-71
2021/05/04 05:21:15;;;;;;;5.75;2.87;;;;;;;7.93;59.21;100179.73;1677687;85;21709;-73
2021/05/04 05:23:44;;;;;;;5.67;3.20;;;;;;;7.98;59.15;100189.25;1651977;85;21117;-73
2021/05/04 05:26:11;;;;;;;5.65;2.90;;;;;;;8.00;58.99;100172.17;1677742;85;21082;-73
2021/05/04 05:28:39;;;;;;;4.97;3.20;;;;;;;8.04;58.96;100193.95;1653834;85;21853;-73
2021/05/04 05:31:06;;;;;;;6.00;2.83;;;;;;;8.04;58.76;100182.52;1679692;85;21062;-73
2021/05/04 05:33:34;;;;;;;5.33;3.10;;;;;;;8.03;58.91;100184.08;1653860;87;21083;-73
2021/05/04 05:36:01;;;;;;;4.12;2.92;;;;;;;8.05;58.97;100195.66;1679671;85;21750;-71
2021/05/04 05:38:31;;;;;;;5.35;3.02;;;;;;;8.11;58.91;100187.56;1652007;85;21143;-72
2021/05/04 05:40:58;;;;;;;7.70;3.33;;;;;;;8.16;58.85;100181.03;1677799;85;21284;-70
2021/05/04 05:43:26;;;;;;;4.20;2.95;;;;;;;8.22;58.66;100187.10;1653776;85;21146;-71
2021/05/04 05:45:53;;;;;;;4.20;2.92;;;;;;;8.26;58.56;100176.14;1677715;85;21089;-71
2021/05/04 05:48:23;;;;;;;5.55;3.15;;;;;;;8.33;58.46;100178.98;1652317;87;21094;-72
2021/05/04 05:50:51;;;;;;;4.47;2.85;;;;;;;8.42;58.32;100177.86;1680852;85;21070;-73
2021/05/04 05:53:20;;;;;;;5.67;2.90;;;;;;;8.51;57.94;100186.31;1653877;85;21135;-71
2021/05/04 05:55:48;;;;;;;4.65;2.80;;;;;;;8.56;57.56;100191.20;1679676;85;21098;-72
2021/05/04 05:58:15;;;;;;;4.97;2.90;;;;;;;8.60;57.47;100188.94;1677748;85;21106;-73
2021/05/04 06:00:43;;;;;;;4.30;2.80;;;;;;;8.64;57.55;100181.54;1653186;85;21293;-71
2021/05/04 06:03:11;;;;;;;5.40;3.27;;;;;;;8.70;57.34;100173.09;1677678;85;21093;-72
2021/05/04 06:05:39;;;;;;;4.70;3.20;;;;;;;8.72;56.99;100178.70;1651853;85;21315;-73
2021/05/04 06:08:06;;;;;;;4.78;2.87;;;;;;;8.71;56.96;100179.73;1677656;85;21296;-73
2021/05/04 06:10:34;;;;;;;6.80;3.37;;;;;;;8.71;56.96;100192.55;1679532;85;21086;-71
2021/05/04 06:13:05;;;;;;;6.00;2.70;;;;;;;8.70;56.98;100179.92;1651857;87;21275;-73
2021/05/04 06:15:36;;;;;;;4.37;2.55;;;;;;;8.74;56.99;100180.72;1677601;85;21833;-72
2021/05/04 06:18:04;;;;;;;4.53;2.83;;;;;;;8.85;56.89;100179.37;1677554;85;21826;-72
2021/05/04 06:20:31;;;;;;;4.20;3.00;;;;;;;8.94;56.60;100185.05;1650128;85;21110;-71
2021/05/04 06:22:59;;;;;;;4.15;2.87;;;;;;;9.01;56.18;100174.20;1677664;85;21391;-72
2021/05/04 06:25:26;;;;;;;4.35;2.98;;;;;;;9.13;56.04;100180.88;1653803;87;21127;-72
2021/05/04 06:27:54;;;;;;;5.35;2.65;;;;;;;9.26;55.73;100180.17;1679635;85;21062;-72
2021/05/04 06:30:22;;;;;;;4.83;3.00;;;;;;;9.43;55.39;100172.03;1653675;85;21813;-75
2021/05/04 06:32:49;;;;;;;4.08;2.67;;;;;;;9.60;54.89;100177.55;1677594;85;21203;-73
2021/05/04 06:35:20;;;;;;;4.90;2.60;;;;;;;9.71;54.59;100166.08;1679569;85;21094;-73
2021/05/04 06:37:47;;;;;;;3.40;2.50;;;;;;;9.86;54.20;100170.13;1650492;87;21369;-72
2021/05/04 06:40:15;;;;;;;5.42;3.08;;;;;;;9.97;53.16;100159.15;1673957;85;21109;-73
2021/05/04 06:42:44;;;;;;;4.42;2.50;;;;;;;10.04;52.69;100166.88;1673984;85;21106;-74
2021/05/04 06:45:12;;;;;;;3.70;2.30;;;;;;;10.08;52.77;100163.55;1648337;85;21305;-74
2021/05/04 06:47:39;;;;;;;4.10;2.60;;;;;;;10.14;52.27;100166.00;1672141;85;21110;-71
2021/05/04 06:50:08;;;;;;;3.40;2.33;;;;;;;10.16;52.43;100162.02;1648363;86;21118;-73
2021/05/04 06:52:35;;;;;;;4.50;2.50;;;;;;;10.27;52.38;100174.33;1672051;85;21252;-73
2021/05/04 06:55:04;;;;;;;3.70;2.50;;;;;;;10.40;51.66;100176.30;1648293;85;21119;-74
2021/05/04 06:57:31;;;;;;;3.60;2.37;;;;;;;10.54;51.46;100182.73;1673970;85;21161;-73
2021/05/04 06:59:59;;;;;;;3.58;2.33;;;;;;;10.64;50.86;100210.59;1648046;86;21302;-73
2021/05/04 07:02:27;;;;;;;4.10;2.45;;;;;;;10.61;50.13;100188.56;1673974;85;21333;-73
2021/05/04 07:04:54;;;;;;;3.55;2.70;;;;;;;10.50;50.15;100189.14;1648334;87;21095;-74
2021/05/04 07:07:22;;;;;;;4.87;2.42;;;;;;;10.43;50.26;100189.10;1673968;85;21102;-74
2021/05/04 07:09:49;;;;;;;5.72;2.12;;;;;;;10.44;50.80;100189.42;1646490;87;21099;-72
2021/05/04 07:12:17;;;;;;;4.85;2.40;;;;;;;10.49;50.75;100202.51;1672096;85;21349;-73
2021/05/04 07:14:45;;;;;;;3.58;2.22;;;;;;;10.51;50.75;100192.72;1646471;87;21620;-70
2021/05/04 07:17:14;;;;;;;4.67;2.25;;;;;;;10.55;50.44;100202.22;1667478;85;21353;-72
2021/05/04 07:19:42;;;;;;;6.15;2.60;;;;;;;10.58;50.58;100200.45;1645404;86;21352;-71
2021/05/04 07:22:11;;;;;;;3.72;2.47;;;;;;;10.69;50.21;100214.95;1644301;87;21109;-71
2021/05/04 07:24:38;;;;;;;3.72;2.33;;;;;;;10.73;50.03;100220.34;1644321;87;21114;-73
2021/05/04 07:27:06;;;;;;;3.95;2.50;;;;;;;10.67;49.56;100218.41;1647569;87;21113;-74
2021/05/04 07:29:37;;;;;;;4.45;2.40;;;;;;;10.62;49.92;100207.22;1648235;87;21141;-73
2021/05/04 07:32:05;;;;;;;4.30;2.17;;;;;;;10.75;49.67;100214.98;1648350;87;21255;-73
2021/05/04 07:34:32;;;;;;;5.17;2.60;;;;;;;10.91;49.48;100211.56;1673425;85;21030;-71
2021/05/04 07:37:00;;;;;;;3.42;2.30;;;;;;;10.98;49.23;100219.30;1672100;85;21086;-74
2021/05/04 07:39:27;;;;;;;4.90;2.45;;;;;;;11.06;49.08;100210.39;1671306;86;21023;-72
2021/05/04 07:41:54;;;;;;;4.97;2.50;;;;;;;11.16;48.69;100211.90;1615054;88;21102;-74
2021/05/04 07:44:22;;;;;;;4.75;2.05;;;;;;;11.16;48.27;100226.45;1623887;88;21125;-74
2021/05/04 07:46:50;;;;;;;3.52;2.40;;;;;;;11.16;48.30;100228.35;1625792;88;21093;-74
2021/05/04 07:49:24;;;;;;;5.67;1.75;;;;;;;11.23;48.14;100214.98;1613131;89;21670;-74
2021/05/04 07:51:47;;;;;;;4.33;2.10;;;;;;;11.31;47.55;100214.79;1625720;87;21082;-74
2021/05/04 07:54:18;;;;;;;3.62;2.12;;;;;;;11.37;47.76;100217.23;1641718;87;21285;-72
2021/05/04 07:56:47;;;;;;;3.58;2.37;;;;;;;11.43;47.75;100208.17;1624276;87;21121;-72
2021/05/04 07:59:15;;;;;;;4.25;2.62;;;;;;;11.52;47.67;100226.66;1637703;87;21099;-72
2021/05/04 08:01:42;;;;;;;4.00;2.50;;;;;;;11.60;47.51;100229.20;1612820;87;21310;-73
2021/05/04 08:04:11;;;;;;;6.90;3.37;;;;;;;11.56;47.17;100234.27;1624602;88;21075;-72
2021/05/04 08:06:39;;;;;;;3.58;2.50;;;;;;;11.47;47.01;100235.51;1626368;88;21119;-73
2021/05/04 08:09:07;;;;;;;3.62;2.30;;;;;;;11.42;46.53;100250.37;1624605;88;21820;-73
2021/05/04 08:11:35;;;;;;;3.85;2.35;;;;;;;11.40;46.94;100240.13;1626302;88;21107;-73
2021/05/04 08:14:04;;;;;;;3.92;2.30;;;;;;;11.54;46.36;100234.15;1626339;88;21127;-72
2021/05/04 08:16:33;;;;;;;3.60;2.40;;;;;;;11.58;46.68;100226.66;1624462;88;21103;-73
2021/05/04 08:19:01;;;;;;;4.42;2.10;;;;;;;11.65;46.41;100228.05;1626279;88;21759;-71
2021/05/04 08:21:33;;;;;;;2.72;2.05;;;;;;;11.65;46.24;100236.28;1624404;88;21358;-74
2021/05/04 08:23:58;;;;;;;3.05;2.10;;;;;;;11.62;45.87;100243.56;1624964;87;21246;-71
2021/05/04 08:26:26;;;;;;;3.08;2.30;;;;;;;11.51;45.78;100253.25;1633106;87;21222;-67
2021/05/04 08:28:55;;;;;;;3.90;2.45;;;;;;;11.40;45.95;100250.58;1632755;87;21196;-67
2021/05/04 08:31:24;;;;;;;3.90;2.42;;;;;;;11.33;46.13;100239.27;1669066;86;21069;-67
2021/05/04 08:33:51;;;;;;;3.47;2.10;;;;;;;11.22;46.51;100234.38;1679067;85;21358;-70
2021/05/04 08:36:20;;;;;;;2.75;2.08;;;;;;;11.26;46.68;100255.70;1682949;85;21314;-72
2021/05/04 08:38:50;;;;;;;3.10;2.10;;;;;;;11.31;46.62;100246.34;1689476;84;21362;-70
2021/05/04 08:41:18;;;;;;;2.72;2.20;;;;;;;11.27;46.33;100242.84;1691462;84;21074;-69
2021/05/04 08:43:46;;;;;;;4.67;2.22;;;;;;;11.16;46.70;100248.39;1663261;85;21131;-68
2021/05/04 08:46:14;;;;;;;3.95;2.35;;;;;;;11.06;47.14;100266.60;1692164;84;21121;-70
2021/05/04 08:48:43;;;;;;;4.95;2.30;;;;;;;10.98;47.28;100259.89;1661041;85;21859;-68
2021/05/04 08:51:12;;;;;;;3.17;2.27;;;;;;;10.90;47.71;100255.95;1651031;87;21085;-70
2021/05/04 08:53:43;;;;;;;4.10;2.60;;;;;;;10.90;48.01;100272.39;1646728;87;21112;-68
2021/05/04 08:56:14;;;;;;;3.87;2.75;;;;;;;10.86;48.21;100266.15;1655451;85;21403;-71
2021/05/04 08:58:42;;;;;;;3.62;2.33;;;;;;;10.80;48.50;100274.66;1688081;84;21747;-70
2021/05/04 09:01:12;;;;;;;3.95;2.35;;;;;;;10.82;48.38;100256.12;1676431;84;21070;-70
2021/05/04 09:03:45;;;;;;;3.50;2.40;;;;;;;10.95;48.35;100263.56;1679163;85;21232;-73
2021/05/04 09:06:24;;;;;;;4.92;2.65;;;;;;;11.09;47.71;100259.86;1679885;85;21315;-74
2021/05/04 09:08:59;;;;;;;4.08;2.15;;;;;;;11.18;47.51;100255.05;1679973;85;21031;-71
2021/05/04 09:14:14;;;;;;;5.53;2.20;;;;;;;11.35;46.74;100253.63;1680053;84;21075;-72
2021/05/04 09:21:57;;;;;;;3.10;1.77;;;;;;;11.67;46.02;100243.25;1623462;88;21338;-74
2021/05/04 09:24:40;;;;;;;3.33;2.00;;;;;;;11.77;45.07;100259.34;1668888;85;21372;-80
2021/05/04 09:27:11;;;;;;;3.47;2.00;;;;;;;11.68;45.17;100248.21;1689870;84;21473;-74
2021/05/04 09:29:46;;;;;;;2.83;1.90;;;;;;;11.64;44.19;100241.45;1646767;86;21665;-74
2021/05/04 09:32:17;;;;;;;5.90;1.90;;;;;;;11.52;44.56;100241.74;1676000;84;21979;-69
2021/05/04 09:34:58;;;;;;;2.25;1.62;;;;;;;11.48;44.81;100248.17;1680299;84;21084;-75
2021/05/04 09:37:37;;;;;;;3.55;2.17;;;;;;;11.44;44.59;100246.38;1653693;85;21327;-72
2021/05/04 09:40:28;;;;;;;4.55;1.85;;;;;;;11.41;44.99;100250.05;1708087;84;21424;-70
2021/05/04 09:43:16;;;;;;;3.10;1.70;;;;;;;11.43;44.85;100253.44;1674656;84;21200;-74
2021/05/04 09:45:56;;;;;;;5.47;2.27;;;;;;;11.42;45.01;100234.76;1681544;85;21824;-74
2021/05/04 09:48:31;;;;;;;4.50;2.62;;;;;;;11.47;45.27;100245.11;1677438;85;21308;-72
2021/05/04 09:51:10;;;;;;;4.35;2.67;;;;;;;11.42;45.40;100242.98;1677986;85;21325;-67
2021/05/04 09:53:49;;;;;;;;;;;;;;;11.42;45.24;100240.24;1679290;85;21051;-70
2021/05/04 09:56:18;;;;;;;2.58;1.90;;;;;;;11.42;45.19;100237.50;1676714;85;20232;-66
2021/05/04 09:58:47;;;;;;;6.50;2.30;;;;;;;11.47;45.39;100250.59;1656034;86;21164;-72
2021/05/04 10:01:17;;;;;;;4.90;2.35;;;;;;;11.42;45.11;100247.11;1677520;85;21196;-72
2021/05/04 10:03:48;;;;;;;2.92;1.77;;;;;;;11.37;45.13;100258.38;1677550;85;21789;-73
2021/05/04 10:06:17;;;;;;;2.02;1.42;;;;;;;11.34;45.24;100236.84;1676812;85;21203;-70
2021/05/04 10:08:45;;;;;;;3.25;2.02;;;;;;;11.35;45.05;100236.64;1677693;85;21103;-70
2021/05/04 10:11:22;;;;;;;4.00;2.50;;;;;;;11.37;45.13;100236.44;1677300;85;21087;-70
2021/05/04 10:13:55;;;;;;;5.08;2.45;;;;;;;11.41;45.10;100230.33;1675049;85;21398;-70
2021/05/04 10:16:28;;;;;;;4.53;1.90;;;;;;;11.51;45.41;100242.80;1676956;85;21207;-71
2021/05/04 10:19:02;;;;;;;3.58;2.02;;;;;;;11.56;44.54;100226.03;1676356;84;21667;-70
2021/05/04 10:21:30;;;;;;;5.40;1.67;;;;;;;11.60;44.82;100227.83;1674282;85;21813;-72
2021/05/04 10:23:58;;;;;;;4.37;1.67;;;;;;;11.82;44.58;100228.55;1677591;85;21406;-70
2021/05/04 10:26:27;;;;;;;3.33;1.52;;;;;;;12.10;44.00;100233.30;1675822;85;21113;-67
2021/05/04 10:29:01;;;;;;;3.75;1.52;;;;;;;12.36;43.44;100223.70;1677640;85;21135;-68
2021/05/04 10:31:40;;;;;;;2.05;1.37;;;;;;;12.61;42.52;100228.51;1677892;85;21361;-72
2021/05/04 10:34:29;;;;;;;2.17;1.35;;;;;;;12.78;41.79;100238.50;1675244;84;21268;-72
2021/05/04 10:37:01;;;;;;;2.80;1.70;;;;;;;12.95;40.79;100224.06;1678173;85;21742;-70
2021/05/04 10:39:47;;;;;;;2.20;1.30;;;;;;;13.03;40.69;100222.16;1664085;85;21330;-67
2021/05/04 10:42:36;;;;;;;2.70;1.50;;;;;;;13.05;40.32;100233.26;1658131;86;21224;-68
2021/05/04 10:45:07;;;;;;;1.67;1.20;;;;;;;12.94;40.77;100229.25;1669536;85;21177;-69
2021/05/04 10:47:44;;;;;;;2.15;1.20;;;;;;;13.09;40.36;100229.53;1670387;85;21181;-70
2021/05/04 10:50:23;;;;;;;1.50;1.20;;;;;;;13.26;40.09;100218.38;1668123;86;21086;-69
2021/05/04 10:52:58;;;;;;;1.72;1.20;;;;;;;13.41;39.52;100215.33;1668326;85;21039;-72
2021/05/04 10:55:46;;;;;;;1.90;1.20;;;;;;;13.55;39.46;100216.41;1670598;86;21300;-74
2021/05/04 10:58:15;;;;;;;2.20;1.27;;;;;;;13.64;39.21;100207.34;1671253;86;21337;-67
2021/05/04 11:01:03;;;;;;;1.67;1.30;;;;;;;13.58;39.44;100210.98;1671542;86;21023;-67
2021/05/04 11:03:36;;;;;;;1.98;1.40;;;;;;;13.57;39.57;100212.05;1640827;87;21122;-69
2021/05/04 11:06:11;;;;;;;4.75;1.40;;;;;;;13.49;39.51;100220.04;1625713;87;21402;-66
2021/05/04 11:08:47;;;;;;;3.15;1.50;;;;;;;13.31;39.52;100213.05;1623750;88;21216;-68
2021/05/04 11:11:29;;;;;;;3.60;1.30;;;;;;;13.17;40.13;100232.91;1623926;88;21467;-66
2021/05/04 11:14:27;;;;;;;3.33;1.35;;;;;;;13.05;40.71;100212.63;1638470;86;21097;-67
2021/05/04 11:17:00;;;;;;;2.37;1.40;;;;;;;12.98;40.46;100214.53;1618710;87;21061;-68
2021/05/04 11:19:33;;;;;;;1.15;1.05;;;;;;;12.88;40.26;100211.40;1623995;88;21801;-70
2021/05/04 11:22:16;;;;;;;1.95;1.20;;;;;;;12.88;40.32;100224.62;1623960;88;21458;-70
2021/05/04 11:24:51;;;;;;;3.05;1.17;;;;;;;12.99;40.06;100214.84;1637776;87;21801;-71
2021/05/04 11:27:22;;;;;;;2.27;1.30;;;;;;;13.07;39.19;100208.28;1590883;89;21368;-71
2021/05/04 11:29:53;;;;;;;1.55;1.10;;;;;;;13.07;39.15;100205.00;1641039;86;21097;-69
2021/05/04 11:32:44;;;;;;;2.95;1.20;;;;;;;13.06;39.12;100196.44;1608363;89;21154;-67
2021/05/04 11:35:14;;;;;;;2.30;1.07;;;;;;;13.10;39.05;100197.69;1622691;87;21295;-71
2021/05/04 11:37:46;;;;;;;2.17;0.78;;;;;;;13.08;38.44;100216.31;1604072;88;21431;-65
2021/05/04 11:40:24;;;;;;;1.17;0.80;;;;;;;13.04;37.93;100199.94;1646336;85;21093;-72
2021/05/04 11:42:54;;;;;;;1.50;0.90;;;;;;;12.97;37.90;100209.56;1648699;85;21282;-69
2021/05/04 11:45:31;;;;;;;2.15;1.07;;;;;;;12.98;38.02;100196.13;1649635;85;21194;-76
2021/05/04 11:48:01;;;;;;;1.95;1.50;;;;;;;13.01;37.83;100200.38;1660844;86;21343;-71